< Typhoon 195702 1957 Season Typhoon 195704 >
Typhoon 195703 (SHIRLEY)
General InformationTrack Information on Google Maps || Disaster Info.ResourceGoogle EarthGE AnimationAtom FeedGeoJSON
Detalied Best Track (Time Zone = UTC)
Year Month Day Hour Lat. Long. Pressure (hPa) Wind (kt) Class Image Chart
1957 4 11 06 7.0 136.0 1002 0 2 -- Chart
1957 4 11 12 7.0 135.2 1002 0 2 -- Chart
1957 4 11 18 6.7 134.5 1002 0 2 -- Chart
1957 4 12 00 6.7 134.4 1002 0 9 -- Chart
1957 4 12 06 7.0 133.8 1002 0 9 -- Chart
1957 4 12 12 7.5 132.7 1002 0 9 -- Chart
1957 4 12 18 8.1 131.6 1002 0 9 -- Chart
1957 4 13 00 8.7 130.4 1002 0 9 -- Chart
1957 4 13 06 9.6 129.2 1002 0 9 -- Chart
1957 4 13 12 10.2 128.6 1002 0 9 -- Chart
1957 4 13 18 11.0 128.2 1000 0 9 -- Chart
1957 4 14 00 11.7 128.0 990 0 9 -- Chart
1957 4 14 06 12.4 127.7 980 0 9 -- Chart
1957 4 14 12 13.3 127.5 980 0 9 -- Chart
1957 4 14 18 14.1 127.4 980 0 9 -- Chart
1957 4 15 00 14.8 127.4 975 0 9 -- Chart
1957 4 15 06 15.5 127.4 975 0 9 -- Chart
1957 4 15 12 16.2 127.4 980 0 9 -- Chart
1957 4 15 18 16.4 126.9 985 0 9 -- Chart
1957 4 16 00 16.5 126.5 997 0 9 -- Chart
1957 4 16 06 17.0 126.5 998 0 9 -- Chart
1957 4 16 12 17.3 126.0 1000 0 9 -- Chart
1957 4 16 18 17.5 125.5 1004 0 9 -- Chart
1957 4 17 00 17.8 125.1 1005 0 2 -- Chart
1957 4 17 06 17.9 124.7 1005 0 2 -- Chart
1957 4 17 12 18.2 124.0 1005 0 2 -- Chart
1957 4 17 18 18.3 123.3 1005 0 2 -- Chart
1957 4 18 00 18.3 122.2 1010 0 2 -- Chart
1957 4 18 06 17.7 120.0 1008 0 2 -- Chart
Japan Meteorological Agency Best Track Data | Correction Date : 1989-06-01
< Typhoon 195702 1957 Season Typhoon 195704 >

Help